Time;durP1;ratioP1;P1;durP2;ratioP2;P2;SDS_P1;SDS_P2;PMS_P1;PMS_P2;Temp;Humidity;BMP_temperature;BMP_pressure;BME280_temperature;BME280_humidity;BME280_pressure;Samples;Min_cycle;Max_cycle;Signal;HPM_P1;HPM_P2
2022/11/30 00:01:12;;;;;;;;;12.75;12.75;;;;;;;;4946650;29;11534;-80
2022/11/30 00:03:39;;;;;;;;;12.50;10.00;;;;;;;;4944987;29;11575;-81
2022/11/30 00:06:09;;;;;;;;;13.25;13.00;;;;;;;;4945094;29;11685;-81
2022/11/30 00:08:38;;;;;;;;;17.50;13.00;;;;;;;;4946443;29;11651;-81
2022/11/30 00:11:10;;;;;;;;;8.50;7.75;;;;;;;;4944437;29;11690;-80
2022/11/30 00:13:38;;;;;;;;;8.75;8.75;;;;;;;;4945364;29;11680;-82
2022/11/30 00:16:07;;;;;;;;;12.00;11.00;;;;;;;;4944204;29;11542;-81
2022/11/30 00:18:35;;;;;;;;;8.00;8.00;;;;;;;;4945480;29;11635;-81
2022/11/30 00:21:04;;;;;;;;;9.00;8.00;;;;;;;;4943553;29;11622;-81
2022/11/30 00:23:33;;;;;;;;;11.25;11.25;;;;;;;;4945476;29;11675;-82
2022/11/30 00:26:03;;;;;;;;;10.25;8.25;;;;;;;;4944354;29;11744;-81
2022/11/30 00:28:32;;;;;;;;;10.50;10.50;;;;;;;;4945790;28;11649;-82
2022/11/30 00:31:02;;;;;;;;;10.50;8.50;;;;;;;;4945750;29;11628;-80
2022/11/30 00:33:33;;;;;;;;;13.50;11.00;;;;;;;;4945675;29;11695;-81
2022/11/30 00:36:03;;;;;;;;;12.75;12.50;;;;;;;;4943981;29;11529;-81
2022/11/30 00:38:32;;;;;;;;;12.25;12.25;;;;;;;;4946823;29;11550;-81
2022/11/30 00:40:59;;;;;;;;;10.50;10.50;;;;;;;;4946681;29;11546;-81
2022/11/30 00:43:29;;;;;;;;;8.50;8.50;;;;;;;;4943922;29;11588;-81
2022/11/30 00:45:56;;;;;;;;;11.00;11.00;;;;;;;;4946698;29;11511;-81
2022/11/30 00:48:24;;;;;;;;;7.00;7.00;;;;;;;;4943050;29;11625;-81
2022/11/30 00:50:52;;;;;;;;;11.50;10.25;;;;;;;;4943407;29;12384;-81
2022/11/30 00:53:22;;;;;;;;;8.25;6.75;;;;;;;;4947138;29;11672;-81
2022/11/30 00:55:49;;;;;;;;;8.25;8.25;;;;;;;;4947814;29;11498;-81
2022/11/30 00:58:18;;;;;;;;;6.50;6.50;;;;;;;;4948324;29;11604;-81
2022/11/30 01:00:48;;;;;;;;;6.00;6.00;;;;;;;;4945026;29;11533;-81
2022/11/30 01:03:15;;;;;;;;;10.50;8.25;;;;;;;;4945933;29;11504;-81
2022/11/30 01:05:45;;;;;;;;;8.50;8.50;;;;;;;;4945883;29;11518;-82
2022/11/30 01:08:13;;;;;;;;;8.50;7.00;;;;;;;;4946296;29;11533;-81
2022/11/30 01:10:43;;;;;;;;;6.75;4.00;;;;;;;;4948116;29;11643;-81
2022/11/30 01:13:13;;;;;;;;;9.25;7.00;;;;;;;;4947704;29;11552;-81
2022/11/30 01:15:44;;;;;;;;;8.00;8.00;;;;;;;;4946041;29;11582;-82
2022/11/30 01:18:13;;;;;;;;;12.00;12.00;;;;;;;;4946548;29;11541;-81
2022/11/30 01:20:41;;;;;;;;;13.25;11.75;;;;;;;;4944957;29;11665;-81
2022/11/30 01:23:09;;;;;;;;;11.50;9.00;;;;;;;;4934525;29;11540;-81
2022/11/30 01:25:37;;;;;;;;;8.50;8.50;;;;;;;;4947902;29;11636;-81
2022/11/30 01:28:05;;;;;;;;;8.00;7.75;;;;;;;;4946457;29;11634;-81
2022/11/30 01:30:32;;;;;;;;;14.50;13.00;;;;;;;;4945177;29;11633;-80
2022/11/30 01:33:03;;;;;;;;;7.00;4.50;;;;;;;;4932867;29;11569;-81
2022/11/30 01:35:32;;;;;;;;;6.50;6.50;;;;;;;;4947068;29;11525;-81
2022/11/30 01:37:59;;;;;;;;;7.00;6.25;;;;;;;;4947818;29;11599;-81
2022/11/30 01:40:27;;;;;;;;;7.50;7.50;;;;;;;;4946216;29;11622;-81
2022/11/30 01:42:55;;;;;;;;;10.75;7.00;;;;;;;;4946443;29;11635;-80
2022/11/30 01:45:23;;;;;;;;;8.00;8.00;;;;;;;;4945062;29;11538;-81
2022/11/30 01:47:53;;;;;;;;;10.25;8.75;;;;;;;;4944299;29;11635;-82
2022/11/30 01:50:23;;;;;;;;;11.75;8.00;;;;;;;;4941401;29;11616;-81
2022/11/30 01:52:55;;;;;;;;;9.00;7.25;;;;;;;;4948180;29;11502;-82
2022/11/30 01:55:26;;;;;;;;;12.00;8.00;;;;;;;;4948797;29;11505;-81
2022/11/30 01:57:58;;;;;;;;;8.50;8.50;;;;;;;;4951844;29;11614;-81
2022/11/30 02:00:25;;;;;;;;;14.50;13.25;;;;;;;;4949889;29;11487;-83
2022/11/30 02:02:57;;;;;;;;;13.75;13.75;;;;;;;;4949227;29;11718;-81
2022/11/30 02:05:25;;;;;;;;;8.50;7.50;;;;;;;;4948739;29;11656;-82
2022/11/30 02:07:54;;;;;;;;;12.00;10.00;;;;;;;;4943099;29;11663;-81
2022/11/30 02:10:27;;;;;;;;;6.00;4.00;;;;;;;;4944751;29;11520;-81
2022/11/30 02:13:19;;;;;;;;;8.25;8.25;;;;;;;;4943775;29;11529;-83
2022/11/30 02:15:56;;;;;;;;;12.00;12.00;;;;;;;;4944740;29;12457;-81
2022/11/30 02:18:28;;;;;;;;;8.00;8.00;;;;;;;;4945254;29;12282;-81
2022/11/30 02:21:06;;;;;;;;;9.00;9.00;;;;;;;;4945594;29;11529;-80
2022/11/30 02:23:55;;;;;;;;;14.00;11.00;;;;;;;;4945570;28;11529;-82
2022/11/30 02:26:31;;;;;;;;;9.25;9.25;;;;;;;;4941290;29;11668;-81
2022/11/30 02:29:07;;;;;;;;;15.25;11.75;;;;;;;;4945359;29;11644;-81
2022/11/30 02:31:40;;;;;;;;;10.50;8.50;;;;;;;;4942039;29;11684;-81
2022/11/30 02:34:10;;;;;;;;;12.50;9.75;;;;;;;;4943436;29;11530;-81
2022/11/30 02:36:37;;;;;;;;;11.75;11.75;;;;;;;;4941296;29;11566;-82
2022/11/30 02:39:05;;;;;;;;;6.75;6.75;;;;;;;;4941917;29;11535;-82
2022/11/30 02:41:37;;;;;;;;;15.25;13.00;;;;;;;;4943783;29;11524;-82
2022/11/30 02:44:07;;;;;;;;;10.25;10.25;;;;;;;;4942945;29;11573;-83
2022/11/30 02:46:51;;;;;;;;;10.00;10.00;;;;;;;;4943070;29;11514;-80
2022/11/30 02:49:27;;;;;;;;;13.75;11.75;;;;;;;;4941411;29;11526;-80
2022/11/30 02:51:56;;;;;;;;;13.75;12.00;;;;;;;;4944079;29;11548;-82
2022/11/30 02:54:24;;;;;;;;;15.50;13.25;;;;;;;;4942316;29;11671;-82
2022/11/30 02:56:54;;;;;;;;;14.50;12.75;;;;;;;;4943792;29;11571;-82
2022/11/30 02:59:24;;;;;;;;;16.50;12.75;;;;;;;;4941118;29;11674;-81
2022/11/30 03:01:52;;;;;;;;;15.75;13.00;;;;;;;;4942365;29;11660;-79
2022/11/30 03:04:21;;;;;;;;;16.75;13.50;;;;;;;;4945190;29;11581;-81
2022/11/30 03:06:48;;;;;;;;;8.50;7.75;;;;;;;;4944308;29;11698;-82
2022/11/30 03:09:16;;;;;;;;;18.00;14.00;;;;;;;;4944706;29;11497;-82
2022/11/30 03:11:43;;;;;;;;;14.75;13.00;;;;;;;;4946157;29;11562;-81
2022/11/30 03:14:11;;;;;;;;;13.75;12.00;;;;;;;;4943480;29;11550;-81
2022/11/30 03:16:40;;;;;;;;;14.00;11.50;;;;;;;;4941712;29;11561;-81
2022/11/30 03:19:08;;;;;;;;;21.25;16.75;;;;;;;;4940957;29;11648;-81
2022/11/30 03:21:36;;;;;;;;;13.00;12.00;;;;;;;;4940532;29;11604;-81
2022/11/30 03:24:04;;;;;;;;;17.00;13.75;;;;;;;;4940711;29;11525;-80
2022/11/30 03:26:32;;;;;;;;;11.50;11.50;;;;;;;;4944753;29;11554;-81
2022/11/30 03:28:59;;;;;;;;;10.00;8.00;;;;;;;;4928115;29;11548;-82
2022/11/30 03:31:27;;;;;;;;;21.75;18.00;;;;;;;;4944491;29;11642;-82
2022/11/30 03:33:56;;;;;;;;;19.25;14.50;;;;;;;;4947081;29;11701;-81
2022/11/30 03:36:24;;;;;;;;;11.00;11.00;;;;;;;;4945456;29;11547;-82
2022/11/30 03:38:54;;;;;;;;;13.75;11.50;;;;;;;;4946921;29;11647;-81
2022/11/30 03:41:22;;;;;;;;;14.00;13.50;;;;;;;;4943506;29;11628;-82
2022/11/30 03:43:50;;;;;;;;;9.00;9.00;;;;;;;;4945265;29;11678;-81
2022/11/30 03:46:18;;;;;;;;;13.75;13.75;;;;;;;;4947905;29;12321;-81
2022/11/30 03:48:45;;;;;;;;;13.50;13.50;;;;;;;;4946274;29;12266;-81
2022/11/30 03:51:15;;;;;;;;;15.00;13.25;;;;;;;;4945750;29;11680;-81
2022/11/30 03:53:42;;;;;;;;;22.75;12.75;;;;;;;;4946689;29;11553;-81
2022/11/30 03:56:11;;;;;;;;;15.25;13.25;;;;;;;;4943994;29;11641;-81
2022/11/30 03:58:39;;;;;;;;;11.25;11.25;;;;;;;;4943777;29;11561;-82
2022/11/30 04:01:10;;;;;;;;;11.00;11.00;;;;;;;;4944219;29;11542;-81
2022/11/30 04:03:38;;;;;;;;;9.75;9.00;;;;;;;;4946943;29;11655;-81
2022/11/30 04:06:07;;;;;;;;;15.25;14.00;;;;;;;;4943945;29;11668;-81
2022/11/30 04:08:37;;;;;;;;;11.50;11.50;;;;;;;;4946957;29;11732;-81
2022/11/30 04:11:06;;;;;;;;;12.25;9.50;;;;;;;;4945381;29;11564;-81
2022/11/30 04:13:34;;;;;;;;;17.00;13.00;;;;;;;;4940466;28;11608;-81
2022/11/30 04:16:02;;;;;;;;;17.50;14.50;;;;;;;;4945541;29;11662;-81
2022/11/30 04:18:31;;;;;;;;;15.00;13.25;;;;;;;;4945989;29;11673;-81
2022/11/30 04:21:00;;;;;;;;;14.25;14.25;;;;;;;;4944739;29;11656;-80
2022/11/30 04:23:30;;;;;;;;;13.50;13.50;;;;;;;;4943795;29;11541;-82
2022/11/30 04:25:59;;;;;;;;;13.25;10.25;;;;;;;;4946414;29;11536;-81
2022/11/30 04:28:27;;;;;;;;;12.75;10.25;;;;;;;;4945371;29;11511;-81
2022/11/30 04:30:55;;;;;;;;;10.00;10.00;;;;;;;;4944744;29;11522;-81
2022/11/30 04:33:26;;;;;;;;;14.50;14.50;;;;;;;;4945279;29;11527;-80
2022/11/30 04:35:56;;;;;;;;;13.50;13.50;;;;;;;;4943577;29;11674;-83
2022/11/30 04:38:24;;;;;;;;;12.00;9.00;;;;;;;;4946693;29;11566;-81
2022/11/30 04:40:52;;;;;;;;;10.50;10.50;;;;;;;;4944782;29;11637;-82
2022/11/30 04:43:22;;;;;;;;;11.75;10.00;;;;;;;;4946526;29;12258;-82
2022/11/30 04:45:50;;;;;;;;;13.00;7.75;;;;;;;;4945473;29;11707;-81
2022/11/30 04:48:18;;;;;;;;;14.75;11.50;;;;;;;;4942259;29;11483;-81
2022/11/30 04:50:46;;;;;;;;;16.00;11.25;;;;;;;;4940793;29;11640;-82
2022/11/30 04:53:14;;;;;;;;;12.50;12.25;;;;;;;;4939102;29;11554;-82
2022/11/30 04:55:41;;;;;;;;;12.00;9.75;;;;;;;;4938883;29;11550;-80
2022/11/30 04:58:09;;;;;;;;;18.25;13.75;;;;;;;;4937920;29;11542;-81
2022/11/30 05:00:39;;;;;;;;;9.00;9.00;;;;;;;;4940865;29;11636;-81
2022/11/30 05:03:06;;;;;;;;;12.75;11.00;;;;;;;;4941714;29;11516;-81
2022/11/30 05:05:34;;;;;;;;;11.75;11.75;;;;;;;;4944887;29;11571;-81
2022/11/30 05:08:02;;;;;;;;;11.25;10.25;;;;;;;;4946184;29;11648;-81
2022/11/30 05:10:32;;;;;;;;;11.00;11.00;;;;;;;;4947618;29;11542;-81
2022/11/30 05:13:00;;;;;;;;;16.50;13.75;;;;;;;;4944318;29;11485;-81
2022/11/30 05:15:27;;;;;;;;;9.75;9.75;;;;;;;;4940876;29;11325;-81
2022/11/30 05:17:59;;;;;;;;;17.75;13.00;;;;;;;;4941238;29;11202;-81
2022/11/30 05:20:26;;;;;;;;;9.75;9.75;;;;;;;;4943208;29;11523;-82
2022/11/30 05:22:54;;;;;;;;;12.25;12.25;;;;;;;;4942421;29;11379;-81
2022/11/30 05:25:24;;;;;;;;;17.75;16.00;;;;;;;;4942947;29;11308;-80
2022/11/30 05:27:52;;;;;;;;;12.75;12.75;;;;;;;;4935601;29;11536;-80
2022/11/30 05:30:20;;;;;;;;;15.50;15.50;;;;;;;;4939194;29;11589;-81
2022/11/30 05:32:48;;;;;;;;;14.50;12.25;;;;;;;;4934668;29;11626;-81
2022/11/30 05:35:18;;;;;;;;;11.75;11.75;;;;;;;;4940485;29;11530;-83
2022/11/30 05:37:45;;;;;;;;;16.50;13.00;;;;;;;;4939286;29;11522;-82
2022/11/30 05:40:14;;;;;;;;;15.50;14.00;;;;;;;;4934501;29;11551;-80
2022/11/30 05:42:41;;;;;;;;;17.00;14.25;;;;;;;;4929289;29;11665;-81
2022/11/30 05:45:10;;;;;;;;;19.50;15.00;;;;;;;;4932901;29;11591;-82
2022/11/30 05:47:38;;;;;;;;;17.00;14.00;;;;;;;;4926601;29;11698;-82
2022/11/30 05:50:07;;;;;;;;;15.25;12.75;;;;;;;;4933165;29;11561;-82
2022/11/30 05:52:36;;;;;;;;;15.50;13.75;;;;;;;;4939682;29;11334;-80
2022/11/30 05:55:05;;;;;;;;;18.00;14.00;;;;;;;;4941170;29;11649;-82
2022/11/30 05:57:36;;;;;;;;;18.50;18.50;;;;;;;;4944362;29;11580;-80
2022/11/30 06:00:05;;;;;;;;;14.50;14.50;;;;;;;;4943961;29;11524;-81
2022/11/30 06:02:32;;;;;;;;;19.75;16.25;;;;;;;;4945061;29;11619;-80
2022/11/30 06:05:00;;;;;;;;;14.50;13.75;;;;;;;;4947043;29;11571;-80
2022/11/30 06:07:28;;;;;;;;;15.00;13.75;;;;;;;;4949771;29;11640;-79
2022/11/30 06:09:58;;;;;;;;;20.50;17.50;;;;;;;;4950651;29;11574;-80
2022/11/30 06:12:28;;;;;;;;;11.75;11.50;;;;;;;;4947756;29;11718;-80
2022/11/30 06:14:56;;;;;;;;;15.25;15.00;;;;;;;;4950074;29;11561;-80
2022/11/30 06:17:23;;;;;;;;;16.00;11.00;;;;;;;;4944610;29;11636;-81
2022/11/30 06:19:51;;;;;;;;;15.00;14.75;;;;;;;;4947802;29;11588;-80
2022/11/30 06:22:19;;;;;;;;;17.25;14.50;;;;;;;;4931957;29;11619;-81
2022/11/30 06:24:47;;;;;;;;;14.25;12.75;;;;;;;;4948231;29;11562;-80
2022/11/30 06:27:16;;;;;;;;;19.00;15.00;;;;;;;;4948045;29;11554;-79
2022/11/30 06:29:44;;;;;;;;;9.75;9.00;;;;;;;;4946891;29;11371;-81
2022/11/30 06:32:11;;;;;;;;;21.25;18.00;;;;;;;;4945440;29;11523;-81
2022/11/30 06:34:39;;;;;;;;;18.25;18.25;;;;;;;;4944412;29;11222;-80
2022/11/30 06:37:06;;;;;;;;;16.50;14.50;;;;;;;;4944010;29;11342;-80
2022/11/30 06:39:34;;;;;;;;;19.00;15.00;;;;;;;;4939835;29;11183;-83
2022/11/30 06:42:02;;;;;;;;;24.00;15.25;;;;;;;;4935734;29;11605;-82
2022/11/30 06:44:32;;;;;;;;;17.00;15.00;;;;;;;;4943584;29;11315;-83
2022/11/30 06:46:59;;;;;;;;;18.75;16.25;;;;;;;;4935639;29;12356;-78
2022/11/30 06:49:28;;;;;;;;;15.25;13.00;;;;;;;;4930695;29;11267;-83
2022/11/30 06:51:56;;;;;;;;;17.50;17.50;;;;;;;;4934169;29;11295;-79
2022/11/30 06:54:23;;;;;;;;;21.00;18.00;;;;;;;;4926692;29;11310;-78
2022/11/30 06:56:51;;;;;;;;;16.50;14.00;;;;;;;;4925921;29;11187;-78
2022/11/30 06:59:18;;;;;;;;;18.00;14.25;;;;;;;;4925901;29;11083;-77
2022/11/30 07:01:47;;;;;;;;;17.25;14.50;;;;;;;;4927405;29;11165;-80
2022/11/30 07:04:14;;;;;;;;;16.75;15.25;;;;;;;;4925372;29;11174;-78
2022/11/30 07:06:42;;;;;;;;;15.50;13.00;;;;;;;;4926835;29;11182;-81
2022/11/30 07:09:12;;;;;;;;;17.50;12.50;;;;;;;;4926885;29;11298;-77
2022/11/30 07:11:39;;;;;;;;;13.00;13.00;;;;;;;;4924887;29;11333;-76
2022/11/30 07:14:07;;;;;;;;;19.00;18.00;;;;;;;;4924267;29;11149;-76
2022/11/30 07:16:34;;;;;;;;;10.00;10.00;;;;;;;;4925311;29;11353;-76
2022/11/30 07:19:04;;;;;;;;;12.75;12.50;;;;;;;;4925565;29;11322;-79
2022/11/30 07:21:33;;;;;;;;;14.25;13.75;;;;;;;;4925318;29;11193;-77
2022/11/30 07:26:50;;;;;;;;;19.75;18.25;;;;;;;;4925109;29;12337;-75
2022/11/30 07:29:18;;;;;;;;;23.25;18.25;;;;;;;;4923694;29;11371;-79
2022/11/30 07:31:52;;;;;;;;;36.00;28.75;;;;;;;;4925412;29;11341;-75
2022/11/30 07:34:22;;;;;;;;;21.00;19.25;;;;;;;;4921241;29;11567;-77
2022/11/30 07:36:50;;;;;;;;;31.25;30.75;;;;;;;;4923224;29;11586;-79
2022/11/30 07:39:19;;;;;;;;;28.25;24.00;;;;;;;;4923200;29;12851;-77
2022/11/30 07:41:47;;;;;;;;;19.00;19.00;;;;;;;;4925027;29;11584;-77
2022/11/30 07:44:16;;;;;;;;;30.50;25.75;;;;;;;;4920782;29;11719;-77
2022/11/30 07:46:43;;;;;;;;;21.25;20.75;;;;;;;;4921458;29;11580;-79
2022/11/30 07:49:11;;;;;;;;;20.75;20.75;;;;;;;;4924373;29;11579;-77
2022/11/30 07:51:40;;;;;;;;;22.50;19.00;;;;;;;;4925056;29;11628;-77
2022/11/30 07:54:08;;;;;;;;;24.00;21.50;;;;;;;;4923370;29;11676;-78
2022/11/30 07:56:37;;;;;;;;;24.00;19.25;;;;;;;;4924107;29;11585;-78
2022/11/30 07:59:05;;;;;;;;;25.75;22.50;;;;;;;;4922411;29;11588;-78
2022/11/30 08:01:33;;;;;;;;;38.50;36.75;;;;;;;;4922117;29;11623;-79
2022/11/30 08:04:01;;;;;;;;;32.50;27.50;;;;;;;;4924954;29;11611;-78
2022/11/30 08:06:30;;;;;;;;;22.75;20.00;;;;;;;;4924837;29;11659;-77
2022/11/30 08:09:01;;;;;;;;;20.50;20.50;;;;;;;;4922785;29;11590;-75
2022/11/30 08:11:30;;;;;;;;;23.75;19.25;;;;;;;;4920697;29;11360;-74
2022/11/30 08:13:59;;;;;;;;;19.25;19.25;;;;;;;;4923978;29;11562;-77
2022/11/30 08:16:28;;;;;;;;;25.00;19.50;;;;;;;;4926056;29;11187;-75
2022/11/30 08:18:57;;;;;;;;;21.00;18.25;;;;;;;;4928924;29;11577;-73
2022/11/30 08:21:25;;;;;;;;;16.25;16.00;;;;;;;;4911685;29;11215;-77
2022/11/30 08:23:54;;;;;;;;;20.75;18.75;;;;;;;;4927045;29;11274;-77
2022/11/30 08:26:26;;;;;;;;;22.50;22.25;;;;;;;;4925305;29;11218;-75
2022/11/30 08:28:55;;;;;;;;;31.25;31.25;;;;;;;;4927864;29;12133;-74
2022/11/30 08:31:24;;;;;;;;;30.75;29.00;;;;;;;;4929149;29;11581;-74
2022/11/30 08:33:56;;;;;;;;;20.00;15.75;;;;;;;;4929581;29;11627;-74
2022/11/30 08:36:25;;;;;;;;;33.00;26.75;;;;;;;;4931137;29;11371;-74
2022/11/30 08:38:53;;;;;;;;;31.75;24.00;;;;;;;;4929281;29;12390;-74
2022/11/30 08:41:23;;;;;;;;;18.75;17.25;;;;;;;;4929355;29;11371;-74
2022/11/30 08:43:51;;;;;;;;;21.00;20.00;;;;;;;;4928669;29;11532;-74
2022/11/30 08:46:21;;;;;;;;;26.75;20.50;;;;;;;;4929332;29;11358;-73
2022/11/30 08:48:48;;;;;;;;;27.00;22.25;;;;;;;;4927988;29;12016;-73
2022/11/30 08:51:17;;;;;;;;;26.75;25.25;;;;;;;;4926212;29;11567;-73
2022/11/30 08:53:45;;;;;;;;;32.50;24.25;;;;;;;;4927030;29;11566;-74
2022/11/30 08:56:15;;;;;;;;;23.75;20.50;;;;;;;;4926245;29;12487;-74
2022/11/30 08:58:45;;;;;;;;;33.50;24.00;;;;;;;;4928830;29;11598;-73
2022/11/30 09:01:14;;;;;;;;;24.00;21.00;;;;;;;;4927824;29;11709;-73
2022/11/30 09:03:42;;;;;;;;;27.75;21.00;;;;;;;;4925935;29;11675;-73
2022/11/30 09:06:13;;;;;;;;;23.50;21.50;;;;;;;;4928320;29;11548;-73
2022/11/30 09:08:42;;;;;;;;;24.50;24.50;;;;;;;;4927168;29;11573;-73
2022/11/30 09:11:10;;;;;;;;;40.00;29.50;;;;;;;;4928189;29;11583;-73
2022/11/30 09:13:38;;;;;;;;;29.50;23.50;;;;;;;;4923104;29;11663;-73
2022/11/30 09:16:07;;;;;;;;;24.75;22.00;;;;;;;;4918500;29;11572;-73
2022/11/30 09:18:35;;;;;;;;;26.75;26.25;;;;;;;;4926866;29;12609;-73
2022/11/30 09:21:04;;;;;;;;;22.00;21.50;;;;;;;;4926638;29;11608;-73
2022/11/30 09:23:31;;;;;;;;;30.50;29.75;;;;;;;;4923684;29;11594;-73
2022/11/30 09:26:00;;;;;;;;;29.75;26.75;;;;;;;;4926727;29;11621;-73
2022/11/30 09:28:29;;;;;;;;;28.75;26.50;;;;;;;;4927604;29;12409;-73
2022/11/30 09:31:02;;;;;;;;;30.25;25.50;;;;;;;;4923679;29;11668;-74
2022/11/30 09:33:32;;;;;;;;;32.50;29.50;;;;;;;;4924664;29;11598;-73
2022/11/30 09:36:00;;;;;;;;;34.50;30.00;;;;;;;;4928554;29;11610;-73
2022/11/30 09:38:29;;;;;;;;;32.50;29.75;;;;;;;;4928936;29;11601;-73
2022/11/30 09:40:58;;;;;;;;;31.00;26.25;;;;;;;;4925530;29;11706;-73
2022/11/30 09:43:34;;;;;;;;;32.00;27.00;;;;;;;;4927844;29;11590;-74
2022/11/30 09:46:05;;;;;;;;;39.25;32.25;;;;;;;;4923177;29;11689;-73
2022/11/30 09:49:02;;;;;;;;;50.50;42.25;;;;;;;;4922702;29;11582;-73
2022/11/30 09:51:35;;;;;;;;;43.25;35.25;;;;;;;;4924604;29;11810;-73
2022/11/30 09:54:08;;;;;;;;;37.25;35.50;;;;;;;;4925234;29;11578;-74
2022/11/30 09:56:39;;;;;;;;;30.00;25.00;;;;;;;;4928159;29;11654;-74
2022/11/30 09:59:13;;;;;;;;;42.50;37.00;;;;;;;;4928173;29;12409;-73
2022/11/30 10:01:40;;;;;;;;;30.00;25.25;;;;;;;;4928402;29;11738;-74
2022/11/30 10:04:22;;;;;;;;;29.50;26.25;;;;;;;;4927343;29;11613;-74
2022/11/30 10:06:57;;;;;;;;;40.25;34.50;;;;;;;;4925243;29;11568;-74
2022/11/30 10:09:34;;;;;;;;;35.50;35.50;;;;;;;;4927553;29;11576;-74
2022/11/30 10:12:06;;;;;;;;;40.75;38.00;;;;;;;;4925719;29;12377;-73
2022/11/30 10:14:46;;;;;;;;;30.75;26.75;;;;;;;;4925594;29;12352;-73
2022/11/30 10:17:23;;;;;;;;;42.00;38.75;;;;;;;;4925665;29;11577;-72
2022/11/30 10:20:11;;;;;;;;;29.00;23.75;;;;;;;;4926376;29;11593;-73
2022/11/30 10:22:52;;;;;;;;;27.25;25.25;;;;;;;;4927558;29;11613;-74
2022/11/30 10:25:23;;;;;;;;;30.00;28.75;;;;;;;;4926039;29;11585;-71
2022/11/30 10:27:52;;;;;;;;;38.00;35.25;;;;;;;;4927967;29;11672;-73
2022/11/30 10:30:22;;;;;;;;;33.00;31.25;;;;;;;;4925240;29;11592;-74
2022/11/30 10:32:54;;;;;;;;;34.50;27.75;;;;;;;;4925468;29;11580;-74
2022/11/30 10:35:32;;;;;;;;;26.25;26.25;;;;;;;;4926481;29;11766;-74
2022/11/30 10:38:03;;;;;;;;;35.00;30.00;;;;;;;;4934444;29;12122;-73
2022/11/30 10:40:36;;;;;;;;;28.25;27.00;;;;;;;;4932440;29;11603;-74
2022/11/30 10:43:14;;;;;;;;;27.25;24.25;;;;;;;;4925142;29;12189;-75
2022/11/30 10:45:48;;;;;;;;;21.25;20.50;;;;;;;;4926369;29;11591;-75
2022/11/30 10:48:20;;;;;;;;;34.75;31.25;;;;;;;;4925319;29;11328;-75
2022/11/30 10:50:49;;;;;;;;;25.50;21.25;;;;;;;;4923843;29;11599;-75
2022/11/30 10:53:17;;;;;;;;;28.25;25.00;;;;;;;;4926025;29;11325;-75
2022/11/30 10:55:50;;;;;;;;;27.25;26.25;;;;;;;;4926709;29;12207;-75
2022/11/30 10:58:23;;;;;;;;;28.75;25.25;;;;;;;;4925678;29;11564;-75
2022/11/30 11:01:01;;;;;;;;;32.25;27.75;;;;;;;;4925850;28;11612;-75
2022/11/30 11:03:29;;;;;;;;;33.00;27.25;;;;;;;;4924935;29;11601;-74
2022/11/30 11:06:16;;;;;;;;;35.75;34.50;;;;;;;;4924522;29;11598;-74
2022/11/30 11:08:45;;;;;;;;;21.25;20.50;;;;;;;;4922032;29;11573;-74
2022/11/30 11:11:36;;;;;;;;;26.25;24.25;;;;;;;;4906436;29;11232;-73
2022/11/30 11:14:18;;;;;;;;;23.50;21.25;;;;;;;;4908372;29;11252;-74
2022/11/30 11:16:55;;;;;;;;;22.50;20.25;;;;;;;;4910802;29;11340;-74
2022/11/30 11:19:35;;;;;;;;;25.50;21.50;;;;;;;;4907140;29;11355;-73
2022/11/30 11:22:07;;;;;;;;;25.75;20.00;;;;;;;;4909477;29;11362;-74
2022/11/30 11:24:35;;;;;;;;;21.25;21.25;;;;;;;;4909128;29;11950;-74
2022/11/30 11:27:03;;;;;;;;;20.75;19.50;;;;;;;;4894461;29;11189;-74
2022/11/30 11:29:32;;;;;;;;;27.00;25.25;;;;;;;;4893907;29;11215;-74
2022/11/30 11:32:18;;;;;;;;;25.75;20.25;;;;;;;;4911941;29;11630;-73
2022/11/30 11:34:46;;;;;;;;;32.25;29.00;;;;;;;;4909209;29;11489;-73
2022/11/30 11:37:25;;;;;;;;;38.25;35.75;;;;;;;;4891238;29;11411;-73
2022/11/30 11:40:05;;;;;;;;;74.00;52.50;;;;;;;;4912007;29;11669;-73
2022/11/30 11:42:35;;;;;;;;;55.25;46.00;;;;;;;;4908212;29;11701;-74
2022/11/30 11:45:04;;;;;;;;;42.25;34.75;;;;;;;;4910027;29;11535;-74
2022/11/30 11:47:38;;;;;;;;;42.00;37.50;;;;;;;;4912086;29;11511;-74
2022/11/30 11:50:19;;;;;;;;;36.25;34.50;;;;;;;;4910156;29;11472;-73
2022/11/30 11:52:48;;;;;;;;;34.00;34.00;;;;;;;;4921211;29;11523;-74
2022/11/30 11:55:19;;;;;;;;;37.50;35.00;;;;;;;;4897694;29;12314;-70
2022/11/30 11:57:50;;;;;;;;;40.50;36.00;;;;;;;;4917421;29;11752;-72
2022/11/30 12:00:20;;;;;;;;;35.50;33.75;;;;;;;;4910446;29;11609;-73
2022/11/30 12:02:56;;;;;;;;;27.00;27.00;;;;;;;;4912659;29;11483;-74
2022/11/30 12:05:27;;;;;;;;;37.00;33.50;;;;;;;;4912053;29;11168;-73
2022/11/30 12:08:07;;;;;;;;;29.00;27.25;;;;;;;;4919499;29;11517;-74
2022/11/30 12:10:40;;;;;;;;;40.50;34.00;;;;;;;;4919535;29;11245;-74
2022/11/30 12:13:13;;;;;;;;;30.50;26.25;;;;;;;;4915753;29;11423;-73
2022/11/30 12:15:50;;;;;;;;;72.00;57.50;;;;;;;;4914655;29;12154;-74
2022/11/30 12:18:21;;;;;;;;;71.00;55.75;;;;;;;;4894035;29;12435;-75
2022/11/30 12:20:54;;;;;;;;;79.00;63.50;;;;;;;;4896735;29;11595;-74
2022/11/30 12:23:42;;;;;;;;;56.75;47.00;;;;;;;;4915417;29;11833;-74
2022/11/30 12:26:16;;;;;;;;;45.25;36.00;;;;;;;;4892574;29;11625;-75
2022/11/30 12:28:51;;;;;;;;;52.25;42.00;;;;;;;;4917894;29;11533;-75
2022/11/30 12:31:19;;;;;;;;;36.75;35.75;;;;;;;;4894861;29;11725;-76
2022/11/30 12:34:03;;;;;;;;;53.00;43.25;;;;;;;;4896175;29;12388;-73
2022/11/30 12:36:40;;;;;;;;;48.50;41.00;;;;;;;;4910966;29;12326;-71
2022/11/30 12:39:16;;;;;;;;;40.25;37.00;;;;;;;;4899876;29;11562;-73
2022/11/30 12:41:51;;;;;;;;;52.25;42.75;;;;;;;;4912667;29;11641;-73
2022/11/30 12:44:29;;;;;;;;;37.75;35.50;;;;;;;;4908123;29;11500;-73
2022/11/30 12:47:05;;;;;;;;;44.00;38.25;;;;;;;;4919813;29;12100;-73
2022/11/30 12:49:45;;;;;;;;;48.50;42.50;;;;;;;;4912419;29;11631;-74
2022/11/30 12:52:23;;;;;;;;;47.50;37.50;;;;;;;;4916117;29;11500;-74
2022/11/30 12:54:56;;;;;;;;;38.50;35.00;;;;;;;;4899029;29;11529;-75
2022/11/30 12:57:28;;;;;;;;;36.50;31.00;;;;;;;;4886471;29;11209;-75
2022/11/30 13:00:02;;;;;;;;;38.50;32.50;;;;;;;;4881545;29;11084;-72
2022/11/30 13:02:58;;;;;;;;;30.75;29.25;;;;;;;;4901917;29;11174;-74
2022/11/30 13:05:32;;;;;;;;;39.25;36.75;;;;;;;;4894227;29;10905;-73
2022/11/30 13:08:05;;;;;;;;;44.75;38.00;;;;;;;;4915465;29;11362;-73
2022/11/30 13:10:40;;;;;;;;;31.25;29.00;;;;;;;;4897141;29;11628;-72
2022/11/30 13:13:14;;;;;;;;;33.25;30.00;;;;;;;;4911679;29;11240;-73
2022/11/30 13:15:41;;;;;;;;;50.75;41.50;;;;;;;;4912523;29;11140;-73
2022/11/30 13:18:16;;;;;;;;;30.75;30.75;;;;;;;;4899420;29;11726;-75
2022/11/30 13:20:48;;;;;;;;;28.25;25.50;;;;;;;;4915417;29;11983;-75
2022/11/30 13:23:21;;;;;;;;;31.00;24.50;;;;;;;;4898217;29;11000;-74
2022/11/30 13:25:56;;;;;;;;;29.75;26.00;;;;;;;;4913348;29;11887;-75
2022/11/30 13:28:31;;;;;;;;;33.25;31.00;;;;;;;;4897145;29;10969;-74
2022/11/30 13:31:04;;;;;;;;;42.00;28.00;;;;;;;;4915435;29;11060;-75
2022/11/30 13:33:49;;;;;;;;;37.75;34.25;;;;;;;;4909839;29;11231;-74
2022/11/30 13:36:27;;;;;;;;;37.00;29.00;;;;;;;;4913930;29;11249;-74
2022/11/30 13:39:21;;;;;;;;;25.00;22.75;;;;;;;;4911995;29;11302;-75
2022/11/30 13:41:51;;;;;;;;;30.50;29.00;;;;;;;;4907142;29;10977;-75
2022/11/30 13:44:31;;;;;;;;;32.25;25.50;;;;;;;;4913239;29;11073;-73
2022/11/30 13:46:59;;;;;;;;;29.50;28.75;;;;;;;;4915116;29;11188;-74
2022/11/30 13:49:30;;;;;;;;;29.50;29.00;;;;;;;;4917934;29;11107;-75
2022/11/30 13:51:58;;;;;;;;;38.50;35.50;;;;;;;;4912698;29;11018;-73
2022/11/30 13:54:43;;;;;;;;;36.75;32.25;;;;;;;;4913094;29;11340;-74
2022/11/30 13:57:40;;;;;;;;;31.50;28.25;;;;;;;;4906755;29;12098;-74
2022/11/30 14:00:41;;;;;;;;;36.50;33.50;;;;;;;;4913653;29;11246;-75
2022/11/30 14:03:30;;;;;;;;;36.00;29.25;;;;;;;;4913515;29;11607;-74
2022/11/30 14:05:58;;;;;;;;;23.25;21.50;;;;;;;;4905996;29;10913;-74
2022/11/30 14:08:36;;;;;;;;;27.25;23.25;;;;;;;;4895938;29;10979;-73
2022/11/30 14:11:43;;;;;;;;;26.25;20.25;;;;;;;;4923897;29;11100;-74
2022/11/30 14:14:46;;;;;;;;;28.75;26.50;;;;;;;;4891629;29;11051;-75
2022/11/30 14:17:27;;;;;;;;;27.25;26.00;;;;;;;;4925513;29;11088;-73
2022/11/30 14:20:00;;;;;;;;;37.75;35.00;;;;;;;;4926302;29;11247;-75
2022/11/30 14:22:31;;;;;;;;;45.25;37.75;;;;;;;;4926470;29;11678;-74
2022/11/30 14:24:58;;;;;;;;;34.50;30.50;;;;;;;;4909692;29;11714;-74
2022/11/30 14:27:29;;;;;;;;;23.25;22.25;;;;;;;;4925754;29;11252;-74
2022/11/30 14:30:03;;;;;;;;;24.75;23.00;;;;;;;;4925518;29;11745;-73
2022/11/30 14:32:38;;;;;;;;;25.50;25.50;;;;;;;;4926516;29;11238;-73
2022/11/30 14:35:10;;;;;;;;;27.50;22.50;;;;;;;;4927372;29;11147;-73
2022/11/30 14:37:44;;;;;;;;;25.25;22.25;;;;;;;;4925009;29;11109;-73
2022/11/30 14:40:18;;;;;;;;;24.75;21.50;;;;;;;;4925727;29;11030;-73
2022/11/30 14:42:52;;;;;;;;;25.25;21.00;;;;;;;;4907068;29;11079;-74
2022/11/30 14:45:24;;;;;;;;;27.75;26.25;;;;;;;;4926610;29;11346;-73
2022/11/30 14:47:54;;;;;;;;;26.75;24.75;;;;;;;;4924713;29;11734;-73